Des Moines, IA

6:02 AM CST en Enero 28, 2015 (GMT -0600)
Witmer Park | Change Station
CLOSE
Current Station
Estación meteorológica personal
Location: Des Moines, IA
Altura: 892 ft
Estaciones meteorológicas cercanas

Alt 892 ft 41.61 °N, 93.66 °W | Updated 12 seconds ago

Nublado
Nublado
30.9 ° F
Sensación térmica 31 ° F
N
0.9
Viento Variable Viento desde SE
Gusts 4.0 mph

Hoy
Alta -- | Baja -- ° F
--% Posibilidad de precipitaciones
Ayer
Alta -- | Baja -- ° F
Precip. -- pul
7:30 AM 5:25 PM
Gibosa creciente, 64% visible
Presión 30.06 pul
Visibilidad 4.0 Millas
Nubes Nublado 400 ft
Vientos helados 31 ° F
Punto de rocío 29 ° F
Humedad 91%
Precipitaciones 0.00 pul
Espesor de la nieve No disponible.
UV 0 de una escala de 12
Polen .10 de una escala de 12
Calidad del aire No disponible.
Flu Activity No disponible.
METAR KDSM 281154Z 13010G18KT 4SM BR OVC004 M01/M03 A3003 RMK AO2 SLP177 T10061028 11006 21011 58017

More Conditions Fewer Conditions

Presión 30.06 pul
Visibilidad 4.0 Millas
Nubes Nublado 400 ft
Vientos helados 31 ° F
Punto de rocío 29 ° F
Humedad 91%
Precipitaciones 0.00 pul
Espesor de la nieve No disponible.
UV 0 de una escala de 12
Polen .10 de una escala de 12
Calidad del aire No disponible.
Flu Activity No disponible.
METAR KDSM 281154Z 13010G18KT 4SM BR OVC004 M01/M03 A3003 RMK AO2 SLP177 T10061028 11006 21011 58017

More Conditions Fewer Conditions

10-Day Weather Forecast

Almanac

Astronomía

Jan. 28, 2015 Salida Puesta
Hora real
Crepúsculo civil
Crepúsculo náutico
Crepúsculo astronómico
Luna
Horas de luz
Horas de luz
Tomorrow will be .
, % of the Moon is Illuminated

Extremos de hoy

Máximos del estado Bajos del estado

Community

WunderPhotos

Upload Photos

1,791,127 ¡fotos cargadas!

WunderBlogs® & News

Nearby

Calidad del aire

  Calidad del aire Índice AQ Contaminante
Not available.

Grosos de nieve

Estación Profundido Altura

Actividad de terremotos

Ciudad Distance Mag. Tiempo y dato
Magnitud mínima muestra es 2,5.

Temperaturas de aguas costeras

Lugar Temperatura

Estaciones meteorológicas cercanas